sensor_id;sensor_type;location;lat;lon;timestamp;P1;durP1;ratioP1;P2;durP2;ratioP2
13040;SDS011;6587;42.728;23.288;2023-09-18T00:01:17;23.70;;;18.00;;
13040;SDS011;6587;42.728;23.288;2023-09-18T00:03:45;24.00;;;18.87;;
13040;SDS011;6587;42.728;23.288;2023-09-18T00:06:11;26.20;;;18.93;;
13040;SDS011;6587;42.728;23.288;2023-09-18T00:08:38;25.30;;;19.97;;
13040;SDS011;6587;42.728;23.288;2023-09-18T00:11:05;26.00;;;18.20;;
13040;SDS011;6587;42.728;23.288;2023-09-18T00:13:32;23.63;;;19.00;;
13040;SDS011;6587;42.728;23.288;2023-09-18T00:15:58;25.00;;;18.77;;
13040;SDS011;6587;42.728;23.288;2023-09-18T00:18:27;27.03;;;19.27;;
13040;SDS011;6587;42.728;23.288;2023-09-18T00:20:54;24.23;;;18.23;;
13040;SDS011;6587;42.728;23.288;2023-09-18T00:23:21;26.53;;;19.30;;
13040;SDS011;6587;42.728;23.288;2023-09-18T00:25:47;24.77;;;19.00;;
13040;SDS011;6587;42.728;23.288;2023-09-18T00:28:14;20.87;;;18.10;;
13040;SDS011;6587;42.728;23.288;2023-09-18T00:30:42;22.53;;;18.80;;
13040;SDS011;6587;42.728;23.288;2023-09-18T00:33:09;26.67;;;19.67;;
13040;SDS011;6587;42.728;23.288;2023-09-18T00:35:37;24.03;;;19.23;;
13040;SDS011;6587;42.728;23.288;2023-09-18T00:38:04;26.57;;;19.03;;
13040;SDS011;6587;42.728;23.288;2023-09-18T00:40:31;26.93;;;19.60;;
13040;SDS011;6587;42.728;23.288;2023-09-18T00:42:58;23.50;;;18.93;;
13040;SDS011;6587;42.728;23.288;2023-09-18T00:45:24;25.20;;;19.23;;
13040;SDS011;6587;42.728;23.288;2023-09-18T00:47:51;23.20;;;18.47;;
13040;SDS011;6587;42.728;23.288;2023-09-18T00:50:19;21.27;;;17.53;;
13040;SDS011;6587;42.728;23.288;2023-09-18T00:52:48;22.77;;;17.57;;
13040;SDS011;6587;42.728;23.288;2023-09-18T00:55:15;23.43;;;16.70;;
13040;SDS011;6587;42.728;23.288;2023-09-18T00:57:42;19.70;;;15.90;;
13040;SDS011;6587;42.728;23.288;2023-09-18T01:00:10;22.53;;;16.63;;
13040;SDS011;6587;42.728;23.288;2023-09-18T01:02:41;22.77;;;16.60;;
13040;SDS011;6587;42.728;23.288;2023-09-18T01:05:08;19.67;;;16.10;;
13040;SDS011;6587;42.728;23.288;2023-09-18T01:07:35;20.00;;;15.70;;
13040;SDS011;6587;42.728;23.288;2023-09-18T01:10:03;22.30;;;16.40;;
13040;SDS011;6587;42.728;23.288;2023-09-18T01:12:30;19.07;;;15.97;;
13040;SDS011;6587;42.728;23.288;2023-09-18T01:15:02;23.53;;;15.27;;
13040;SDS011;6587;42.728;23.288;2023-09-18T01:17:30;19.60;;;15.30;;
13040;SDS011;6587;42.728;23.288;2023-09-18T01:19:57;20.00;;;14.50;;
13040;SDS011;6587;42.728;23.288;2023-09-18T01:22:24;23.23;;;15.70;;
13040;SDS011;6587;42.728;23.288;2023-09-18T01:24:52;15.73;;;13.73;;
13040;SDS011;6587;42.728;23.288;2023-09-18T01:27:20;18.20;;;13.57;;
13040;SDS011;6587;42.728;23.288;2023-09-18T01:29:47;16.30;;;13.00;;
13040;SDS011;6587;42.728;23.288;2023-09-18T01:32:14;17.73;;;13.57;;
13040;SDS011;6587;42.728;23.288;2023-09-18T01:34:42;15.70;;;12.20;;
13040;SDS011;6587;42.728;23.288;2023-09-18T01:37:09;15.40;;;12.40;;
13040;SDS011;6587;42.728;23.288;2023-09-18T01:39:36;13.67;;;11.77;;
13040;SDS011;6587;42.728;23.288;2023-09-18T01:42:06;16.13;;;11.83;;
13040;SDS011;6587;42.728;23.288;2023-09-18T01:44:34;13.87;;;11.67;;
13040;SDS011;6587;42.728;23.288;2023-09-18T01:47:02;15.80;;;11.83;;
13040;SDS011;6587;42.728;23.288;2023-09-18T01:49:31;13.87;;;11.07;;
13040;SDS011;6587;42.728;23.288;2023-09-18T01:51:58;13.63;;;11.53;;
13040;SDS011;6587;42.728;23.288;2023-09-18T01:54:25;17.90;;;11.70;;
13040;SDS011;6587;42.728;23.288;2023-09-18T01:56:52;13.63;;;11.70;;
13040;SDS011;6587;42.728;23.288;2023-09-18T01:59:21;14.53;;;11.13;;
13040;SDS011;6587;42.728;23.288;2023-09-18T02:01:48;17.57;;;12.60;;
13040;SDS011;6587;42.728;23.288;2023-09-18T02:04:15;16.10;;;11.97;;
13040;SDS011;6587;42.728;23.288;2023-09-18T02:06:42;16.57;;;12.97;;
13040;SDS011;6587;42.728;23.288;2023-09-18T02:09:08;17.77;;;12.60;;
13040;SDS011;6587;42.728;23.288;2023-09-18T02:11:35;17.60;;;12.77;;
13040;SDS011;6587;42.728;23.288;2023-09-18T02:14:02;18.17;;;12.87;;
13040;SDS011;6587;42.728;23.288;2023-09-18T02:16:32;18.67;;;14.07;;
13040;SDS011;6587;42.728;23.288;2023-09-18T02:18:58;18.70;;;14.33;;
13040;SDS011;6587;42.728;23.288;2023-09-18T02:21:25;20.63;;;14.83;;
13040;SDS011;6587;42.728;23.288;2023-09-18T02:23:52;21.47;;;15.90;;
13040;SDS011;6587;42.728;23.288;2023-09-18T02:26:19;20.83;;;15.73;;
13040;SDS011;6587;42.728;23.288;2023-09-18T02:28:46;19.63;;;15.90;;
13040;SDS011;6587;42.728;23.288;2023-09-18T02:31:12;24.13;;;16.17;;
13040;SDS011;6587;42.728;23.288;2023-09-18T02:33:40;20.53;;;14.93;;
13040;SDS011;6587;42.728;23.288;2023-09-18T02:36:07;20.73;;;14.17;;
13040;SDS011;6587;42.728;23.288;2023-09-18T02:38:34;18.77;;;14.00;;
13040;SDS011;6587;42.728;23.288;2023-09-18T02:41:00;21.40;;;13.40;;
13040;SDS011;6587;42.728;23.288;2023-09-18T02:43:27;16.97;;;13.70;;
13040;SDS011;6587;42.728;23.288;2023-09-18T02:45:53;20.07;;;13.87;;
13040;SDS011;6587;42.728;23.288;2023-09-18T02:48:20;19.23;;;13.83;;
13040;SDS011;6587;42.728;23.288;2023-09-18T02:50:48;21.07;;;13.30;;
13040;SDS011;6587;42.728;23.288;2023-09-18T02:53:16;18.00;;;13.40;;
13040;SDS011;6587;42.728;23.288;2023-09-18T02:55:43;17.50;;;12.43;;
13040;SDS011;6587;42.728;23.288;2023-09-18T02:58:10;14.23;;;11.60;;
13040;SDS011;6587;42.728;23.288;2023-09-18T03:00:40;16.57;;;12.83;;
13040;SDS011;6587;42.728;23.288;2023-09-18T03:03:07;19.37;;;12.43;;
13040;SDS011;6587;42.728;23.288;2023-09-18T03:05:34;15.73;;;12.00;;
13040;SDS011;6587;42.728;23.288;2023-09-18T03:08:03;14.80;;;12.30;;
13040;SDS011;6587;42.728;23.288;2023-09-18T03:10:32;16.57;;;12.00;;
13040;SDS011;6587;42.728;23.288;2023-09-18T03:12:59;18.87;;;12.63;;
13040;SDS011;6587;42.728;23.288;2023-09-18T03:15:27;15.13;;;11.70;;
13040;SDS011;6587;42.728;23.288;2023-09-18T03:17:54;15.47;;;11.83;;
13040;SDS011;6587;42.728;23.288;2023-09-18T03:20:21;15.83;;;11.87;;
13040;SDS011;6587;42.728;23.288;2023-09-18T03:22:48;15.23;;;11.50;;
13040;SDS011;6587;42.728;23.288;2023-09-18T03:25:16;15.50;;;11.70;;
13040;SDS011;6587;42.728;23.288;2023-09-18T03:27:43;14.07;;;11.67;;
13040;SDS011;6587;42.728;23.288;2023-09-18T03:30:10;18.17;;;12.50;;
13040;SDS011;6587;42.728;23.288;2023-09-18T03:32:38;15.83;;;11.83;;
13040;SDS011;6587;42.728;23.288;2023-09-18T03:35:05;16.17;;;11.93;;
13040;SDS011;6587;42.728;23.288;2023-09-18T03:37:34;16.03;;;12.33;;
13040;SDS011;6587;42.728;23.288;2023-09-18T03:40:01;17.47;;;12.57;;
13040;SDS011;6587;42.728;23.288;2023-09-18T03:42:29;18.30;;;13.27;;
13040;SDS011;6587;42.728;23.288;2023-09-18T03:44:56;18.17;;;13.67;;
13040;SDS011;6587;42.728;23.288;2023-09-18T03:47:23;19.57;;;13.20;;
13040;SDS011;6587;42.728;23.288;2023-09-18T03:49:49;21.40;;;14.60;;
13040;SDS011;6587;42.728;23.288;2023-09-18T03:52:16;17.73;;;14.20;;
13040;SDS011;6587;42.728;23.288;2023-09-18T03:54:43;25.07;;;15.57;;
13040;SDS011;6587;42.728;23.288;2023-09-18T03:57:10;21.43;;;14.83;;
13040;SDS011;6587;42.728;23.288;2023-09-18T03:59:38;20.47;;;15.40;;
13040;SDS011;6587;42.728;23.288;2023-09-18T04:02:05;22.03;;;16.13;;
13040;SDS011;6587;42.728;23.288;2023-09-18T04:04:31;20.40;;;15.53;;
13040;SDS011;6587;42.728;23.288;2023-09-18T04:06:58;19.90;;;16.13;;
13040;SDS011;6587;42.728;23.288;2023-09-18T04:09:25;27.10;;;17.47;;
13040;SDS011;6587;42.728;23.288;2023-09-18T04:11:51;24.30;;;16.27;;
13040;SDS011;6587;42.728;23.288;2023-09-18T04:14:20;31.27;;;17.60;;
13040;SDS011;6587;42.728;23.288;2023-09-18T04:16:48;24.83;;;17.23;;
13040;SDS011;6587;42.728;23.288;2023-09-18T04:19:15;24.50;;;17.93;;
13040;SDS011;6587;42.728;23.288;2023-09-18T04:21:41;25.67;;;17.03;;
13040;SDS011;6587;42.728;23.288;2023-09-18T04:24:08;26.33;;;16.80;;
13040;SDS011;6587;42.728;23.288;2023-09-18T04:26:34;24.00;;;15.70;;
13040;SDS011;6587;42.728;23.288;2023-09-18T04:29:03;22.83;;;15.33;;
13040;SDS011;6587;42.728;23.288;2023-09-18T04:31:30;23.07;;;14.13;;
13040;SDS011;6587;42.728;23.288;2023-09-18T04:33:59;19.03;;;12.93;;
13040;SDS011;6587;42.728;23.288;2023-09-18T04:36:25;16.50;;;12.03;;
13040;SDS011;6587;42.728;23.288;2023-09-18T04:38:52;20.20;;;12.97;;
13040;SDS011;6587;42.728;23.288;2023-09-18T04:41:19;20.23;;;12.90;;
13040;SDS011;6587;42.728;23.288;2023-09-18T04:43:46;22.27;;;13.43;;
13040;SDS011;6587;42.728;23.288;2023-09-18T04:46:12;22.53;;;12.77;;
13040;SDS011;6587;42.728;23.288;2023-09-18T04:48:39;21.70;;;14.03;;
13040;SDS011;6587;42.728;23.288;2023-09-18T04:51:07;22.73;;;13.77;;
13040;SDS011;6587;42.728;23.288;2023-09-18T04:53:34;23.97;;;14.77;;
13040;SDS011;6587;42.728;23.288;2023-09-18T04:56:01;25.43;;;14.80;;
13040;SDS011;6587;42.728;23.288;2023-09-18T04:58:28;22.47;;;13.40;;
13040;SDS011;6587;42.728;23.288;2023-09-18T05:00:56;23.97;;;14.33;;
13040;SDS011;6587;42.728;23.288;2023-09-18T05:03:23;22.23;;;13.73;;
13040;SDS011;6587;42.728;23.288;2023-09-18T05:05:50;21.77;;;14.37;;
13040;SDS011;6587;42.728;23.288;2023-09-18T05:08:18;22.80;;;14.33;;
13040;SDS011;6587;42.728;23.288;2023-09-18T05:10:45;22.10;;;15.70;;
13040;SDS011;6587;42.728;23.288;2023-09-18T05:13:12;21.20;;;14.47;;
13040;SDS011;6587;42.728;23.288;2023-09-18T05:15:39;28.17;;;15.70;;
13040;SDS011;6587;42.728;23.288;2023-09-18T05:18:05;23.50;;;15.07;;
13040;SDS011;6587;42.728;23.288;2023-09-18T05:20:33;25.30;;;17.13;;
13040;SDS011;6587;42.728;23.288;2023-09-18T05:23:00;26.87;;;15.43;;
13040;SDS011;6587;42.728;23.288;2023-09-18T05:25:29;23.87;;;16.30;;
13040;SDS011;6587;42.728;23.288;2023-09-18T05:27:57;27.43;;;17.27;;
13040;SDS011;6587;42.728;23.288;2023-09-18T05:30:25;27.57;;;16.83;;
13040;SDS011;6587;42.728;23.288;2023-09-18T05:32:53;22.73;;;16.03;;
13040;SDS011;6587;42.728;23.288;2023-09-18T05:35:20;22.73;;;15.30;;
13040;SDS011;6587;42.728;23.288;2023-09-18T05:37:46;23.20;;;15.23;;
13040;SDS011;6587;42.728;23.288;2023-09-18T05:40:13;25.50;;;16.73;;
13040;SDS011;6587;42.728;23.288;2023-09-18T05:42:42;21.57;;;15.47;;
13040;SDS011;6587;42.728;23.288;2023-09-18T05:45:09;24.30;;;15.93;;
13040;SDS011;6587;42.728;23.288;2023-09-18T05:47:36;24.57;;;18.00;;
13040;SDS011;6587;42.728;23.288;2023-09-18T05:50:03;28.47;;;18.93;;
13040;SDS011;6587;42.728;23.288;2023-09-18T05:52:32;25.73;;;18.03;;
13040;SDS011;6587;42.728;23.288;2023-09-18T05:54:58;28.17;;;18.17;;
13040;SDS011;6587;42.728;23.288;2023-09-18T05:57:25;25.13;;;17.37;;
13040;SDS011;6587;42.728;23.288;2023-09-18T05:59:54;26.20;;;17.40;;
13040;SDS011;6587;42.728;23.288;2023-09-18T06:02:21;24.83;;;17.97;;
13040;SDS011;6587;42.728;23.288;2023-09-18T06:04:48;25.70;;;16.57;;
13040;SDS011;6587;42.728;23.288;2023-09-18T06:07:14;29.57;;;17.40;;
13040;SDS011;6587;42.728;23.288;2023-09-18T06:09:41;26.80;;;18.87;;
13040;SDS011;6587;42.728;23.288;2023-09-18T06:12:08;22.97;;;16.60;;
13040;SDS011;6587;42.728;23.288;2023-09-18T06:14:35;27.63;;;17.73;;
13040;SDS011;6587;42.728;23.288;2023-09-18T06:17:04;23.90;;;16.93;;
13040;SDS011;6587;42.728;23.288;2023-09-18T06:19:31;31.83;;;17.23;;
13040;SDS011;6587;42.728;23.288;2023-09-18T06:21:59;22.10;;;16.37;;
13040;SDS011;6587;42.728;23.288;2023-09-18T06:24:25;21.60;;;15.70;;
13040;SDS011;6587;42.728;23.288;2023-09-18T06:26:52;26.93;;;16.40;;
13040;SDS011;6587;42.728;23.288;2023-09-18T06:29:19;25.37;;;17.77;;
13040;SDS011;6587;42.728;23.288;2023-09-18T06:31:46;28.77;;;17.10;;
13040;SDS011;6587;42.728;23.288;2023-09-18T06:34:14;21.93;;;15.13;;
13040;SDS011;6587;42.728;23.288;2023-09-18T06:36:40;20.83;;;14.77;;
13040;SDS011;6587;42.728;23.288;2023-09-18T06:39:07;22.93;;;13.53;;
13040;SDS011;6587;42.728;23.288;2023-09-18T06:41:33;23.27;;;14.53;;
13040;SDS011;6587;42.728;23.288;2023-09-18T06:44:00;18.93;;;13.63;;
13040;SDS011;6587;42.728;23.288;2023-09-18T06:46:28;17.50;;;12.90;;
13040;SDS011;6587;42.728;23.288;2023-09-18T06:48:55;21.03;;;13.07;;
13040;SDS011;6587;42.728;23.288;2023-09-18T06:51:23;20.07;;;13.53;;
13040;SDS011;6587;42.728;23.288;2023-09-18T06:53:50;18.27;;;13.57;;
13040;SDS011;6587;42.728;23.288;2023-09-18T06:56:17;17.33;;;13.10;;
13040;SDS011;6587;42.728;23.288;2023-09-18T06:58:43;19.20;;;14.17;;
13040;SDS011;6587;42.728;23.288;2023-09-18T07:01:10;20.20;;;14.00;;
13040;SDS011;6587;42.728;23.288;2023-09-18T07:03:36;20.20;;;14.23;;
13040;SDS011;6587;42.728;23.288;2023-09-18T07:06:05;19.03;;;13.97;;
13040;SDS011;6587;42.728;23.288;2023-09-18T07:08:33;23.30;;;13.67;;
13040;SDS011;6587;42.728;23.288;2023-09-18T07:11:01;18.93;;;12.50;;
13040;SDS011;6587;42.728;23.288;2023-09-18T07:13:28;17.00;;;12.73;;
13040;SDS011;6587;42.728;23.288;2023-09-18T07:15:54;20.23;;;12.63;;
13040;SDS011;6587;42.728;23.288;2023-09-18T07:18:21;20.33;;;13.03;;
13040;SDS011;6587;42.728;23.288;2023-09-18T07:20:48;19.30;;;13.83;;
13040;SDS011;6587;42.728;23.288;2023-09-18T07:23:14;20.67;;;14.53;;
13040;SDS011;6587;42.728;23.288;2023-09-18T07:25:42;18.83;;;13.97;;
13040;SDS011;6587;42.728;23.288;2023-09-18T07:28:09;21.00;;;14.27;;
13040;SDS011;6587;42.728;23.288;2023-09-18T07:30:41;22.33;;;14.73;;
13040;SDS011;6587;42.728;23.288;2023-09-18T07:33:09;20.77;;;14.30;;
13040;SDS011;6587;42.728;23.288;2023-09-18T07:35:35;19.93;;;14.30;;
13040;SDS011;6587;42.728;23.288;2023-09-18T07:38:02;21.60;;;14.80;;
13040;SDS011;6587;42.728;23.288;2023-09-18T07:40:28;21.30;;;15.40;;
13040;SDS011;6587;42.728;23.288;2023-09-18T07:42:56;20.53;;;14.63;;
13040;SDS011;6587;42.728;23.288;2023-09-18T07:45:23;24.17;;;15.03;;
13040;SDS011;6587;42.728;23.288;2023-09-18T07:47:50;23.30;;;15.67;;
13040;SDS011;6587;42.728;23.288;2023-09-18T07:50:16;19.17;;;13.85;;
13040;SDS011;6587;42.728;23.288;2023-09-18T07:52:43;24.03;;;14.77;;
13040;SDS011;6587;42.728;23.288;2023-09-18T07:55:10;19.70;;;14.50;;
13040;SDS011;6587;42.728;23.288;2023-09-18T07:57:36;18.52;;;14.20;;
13040;SDS011;6587;42.728;23.288;2023-09-18T08:00:05;18.75;;;13.32;;
13040;SDS011;6587;42.728;23.288;2023-09-18T08:02:37;18.83;;;13.90;;
13040;SDS011;6587;42.728;23.288;2023-09-18T08:05:04;20.40;;;14.10;;
13040;SDS011;6587;42.728;23.288;2023-09-18T08:07:31;19.02;;;13.60;;
13040;SDS011;6587;42.728;23.288;2023-09-18T08:09:58;18.20;;;13.75;;
13040;SDS011;6587;42.728;23.288;2023-09-18T08:12:24;21.58;;;14.43;;
13040;SDS011;6587;42.728;23.288;2023-09-18T08:14:51;16.92;;;13.25;;
13040;SDS011;6587;42.728;23.288;2023-09-18T08:17:19;18.73;;;12.77;;
13040;SDS011;6587;42.728;23.288;2023-09-18T08:19:45;17.77;;;12.18;;
13040;SDS011;6587;42.728;23.288;2023-09-18T08:22:13;17.50;;;12.68;;
13040;SDS011;6587;42.728;23.288;2023-09-18T08:24:41;19.95;;;14.32;;
13040;SDS011;6587;42.728;23.288;2023-09-18T08:27:10;17.73;;;12.98;;
13040;SDS011;6587;42.728;23.288;2023-09-18T08:29:37;17.63;;;13.60;;
13040;SDS011;6587;42.728;23.288;2023-09-18T08:32:04;16.05;;;11.48;;
13040;SDS011;6587;42.728;23.288;2023-09-18T08:34:32;16.52;;;11.55;;
13040;SDS011;6587;42.728;23.288;2023-09-18T08:36:58;16.40;;;12.05;;
13040;SDS011;6587;42.728;23.288;2023-09-18T08:39:25;16.35;;;11.02;;
13040;SDS011;6587;42.728;23.288;2023-09-18T08:41:51;13.40;;;10.50;;
13040;SDS011;6587;42.728;23.288;2023-09-18T08:44:21;17.20;;;11.85;;
13040;SDS011;6587;42.728;23.288;2023-09-18T08:46:49;15.45;;;11.45;;
13040;SDS011;6587;42.728;23.288;2023-09-18T08:49:15;15.75;;;11.75;;
13040;SDS011;6587;42.728;23.288;2023-09-18T08:51:44;15.10;;;11.32;;
13040;SDS011;6587;42.728;23.288;2023-09-18T08:54:11;16.27;;;11.55;;
13040;SDS011;6587;42.728;23.288;2023-09-18T08:56:37;16.05;;;11.80;;
13040;SDS011;6587;42.728;23.288;2023-09-18T08:59:04;14.85;;;11.80;;
13040;SDS011;6587;42.728;23.288;2023-09-18T09:01:31;15.65;;;11.20;;
13040;SDS011;6587;42.728;23.288;2023-09-18T09:03:57;15.52;;;12.52;;
13040;SDS011;6587;42.728;23.288;2023-09-18T09:06:25;13.85;;;11.35;;
13040;SDS011;6587;42.728;23.288;2023-09-18T09:08:53;14.82;;;11.43;;
13040;SDS011;6587;42.728;23.288;2023-09-18T09:11:20;15.38;;;11.35;;
13040;SDS011;6587;42.728;23.288;2023-09-18T09:13:47;15.63;;;10.80;;
13040;SDS011;6587;42.728;23.288;2023-09-18T09:16:18;13.52;;;10.57;;
13040;SDS011;6587;42.728;23.288;2023-09-18T09:18:48;16.95;;;11.57;;
13040;SDS011;6587;42.728;23.288;2023-09-18T09:21:14;16.55;;;11.73;;
13040;SDS011;6587;42.728;23.288;2023-09-18T09:23:45;16.17;;;12.10;;
13040;SDS011;6587;42.728;23.288;2023-09-18T09:26:16;13.45;;;10.75;;
13040;SDS011;6587;42.728;23.288;2023-09-18T09:28:42;17.08;;;10.82;;
13040;SDS011;6587;42.728;23.288;2023-09-18T09:31:09;13.55;;;10.15;;
13040;SDS011;6587;42.728;23.288;2023-09-18T09:33:36;17.17;;;11.07;;
13040;SDS011;6587;42.728;23.288;2023-09-18T09:36:06;12.57;;;9.90;;
13040;SDS011;6587;42.728;23.288;2023-09-18T09:38:33;15.43;;;10.45;;
13040;SDS011;6587;42.728;23.288;2023-09-18T09:41:00;12.73;;;10.23;;
13040;SDS011;6587;42.728;23.288;2023-09-18T09:43:28;11.90;;;9.32;;
13040;SDS011;6587;42.728;23.288;2023-09-18T09:45:59;15.35;;;10.32;;
13040;SDS011;6587;42.728;23.288;2023-09-18T09:48:25;13.50;;;9.32;;
13040;SDS011;6587;42.728;23.288;2023-09-18T09:50:52;14.05;;;8.95;;
13040;SDS011;6587;42.728;23.288;2023-09-18T09:56:06;9.65;;;8.63;;
13040;SDS011;6587;42.728;23.288;2023-09-18T09:58:35;12.32;;;9.13;;
13040;SDS011;6587;42.728;23.288;2023-09-18T10:01:02;10.63;;;8.82;;
13040;SDS011;6587;42.728;23.288;2023-09-18T10:03:31;11.95;;;8.40;;
13040;SDS011;6587;42.728;23.288;2023-09-18T10:05:59;11.18;;;8.98;;
13040;SDS011;6587;42.728;23.288;2023-09-18T10:08:26;12.75;;;8.95;;
13040;SDS011;6587;42.728;23.288;2023-09-18T10:10:56;10.45;;;8.50;;
13040;SDS011;6587;42.728;23.288;2023-09-18T10:13:26;11.60;;;8.43;;
13040;SDS011;6587;42.728;23.288;2023-09-18T10:15:55;12.25;;;8.65;;
13040;SDS011;6587;42.728;23.288;2023-09-18T10:18:25;9.48;;;8.10;;
13040;SDS011;6587;42.728;23.288;2023-09-18T10:20:55;11.57;;;8.23;;
13040;SDS011;6587;42.728;23.288;2023-09-18T10:23:32;9.65;;;8.07;;
13040;SDS011;6587;42.728;23.288;2023-09-18T10:26:00;10.05;;;9.00;;
13040;SDS011;6587;42.728;23.288;2023-09-18T10:28:28;10.13;;;8.15;;
13040;SDS011;6587;42.728;23.288;2023-09-18T10:30:57;8.85;;;7.43;;
13040;SDS011;6587;42.728;23.288;2023-09-18T10:33:25;9.93;;;8.05;;
13040;SDS011;6587;42.728;23.288;2023-09-18T10:35:52;10.23;;;7.80;;
13040;SDS011;6587;42.728;23.288;2023-09-18T10:38:19;8.88;;;7.95;;
13040;SDS011;6587;42.728;23.288;2023-09-18T10:40:46;9.05;;;8.10;;
13040;SDS011;6587;42.728;23.288;2023-09-18T10:43:15;10.05;;;7.65;;
13040;SDS011;6587;42.728;23.288;2023-09-18T10:45:42;11.50;;;7.97;;
13040;SDS011;6587;42.728;23.288;2023-09-18T10:48:10;9.35;;;6.85;;
13040;SDS011;6587;42.728;23.288;2023-09-18T10:50:38;9.95;;;7.10;;
13040;SDS011;6587;42.728;23.288;2023-09-18T10:53:06;8.00;;;6.55;;
13040;SDS011;6587;42.728;23.288;2023-09-18T10:55:32;7.13;;;6.43;;
13040;SDS011;6587;42.728;23.288;2023-09-18T10:57:59;7.05;;;6.35;;
13040;SDS011;6587;42.728;23.288;2023-09-18T11:00:26;9.60;;;7.13;;
13040;SDS011;6587;42.728;23.288;2023-09-18T11:02:53;9.75;;;6.85;;
13040;SDS011;6587;42.728;23.288;2023-09-18T11:05:27;9.27;;;6.95;;
13040;SDS011;6587;42.728;23.288;2023-09-18T11:10:36;10.05;;;6.57;;
13040;SDS011;6587;42.728;23.288;2023-09-18T11:13:05;8.98;;;5.95;;
13040;SDS011;6587;42.728;23.288;2023-09-18T11:15:33;7.35;;;6.18;;
13040;SDS011;6587;42.728;23.288;2023-09-18T11:17:59;7.03;;;6.30;;
13040;SDS011;6587;42.728;23.288;2023-09-18T11:20:29;9.43;;;6.20;;
13040;SDS011;6587;42.728;23.288;2023-09-18T11:22:57;6.85;;;6.13;;
13040;SDS011;6587;42.728;23.288;2023-09-18T11:28:06;7.20;;;6.13;;
13040;SDS011;6587;42.728;23.288;2023-09-18T11:30:34;7.53;;;6.05;;
13040;SDS011;6587;42.728;23.288;2023-09-18T11:33:02;7.25;;;6.10;;
13040;SDS011;6587;42.728;23.288;2023-09-18T11:35:31;7.70;;;5.53;;
13040;SDS011;6587;42.728;23.288;2023-09-18T11:38:04;6.40;;;5.57;;
13040;SDS011;6587;42.728;23.288;2023-09-18T11:40:32;7.40;;;5.78;;
13040;SDS011;6587;42.728;23.288;2023-09-18T11:43:19;12.35;;;7.30;;
13040;SDS011;6587;42.728;23.288;2023-09-18T11:45:49;7.05;;;6.10;;
13040;SDS011;6587;42.728;23.288;2023-09-18T11:48:15;10.15;;;6.03;;
13040;SDS011;6587;42.728;23.288;2023-09-18T11:50:44;8.75;;;5.72;;
13040;SDS011;6587;42.728;23.288;2023-09-18T11:53:11;7.32;;;5.57;;
13040;SDS011;6587;42.728;23.288;2023-09-18T11:55:39;7.03;;;5.57;;
13040;SDS011;6587;42.728;23.288;2023-09-18T11:58:05;9.82;;;6.30;;
13040;SDS011;6587;42.728;23.288;2023-09-18T12:00:34;10.55;;;5.70;;
13040;SDS011;6587;42.728;23.288;2023-09-18T12:03:14;5.60;;;4.90;;
13040;SDS011;6587;42.728;23.288;2023-09-18T12:05:42;8.07;;;5.80;;
13040;SDS011;6587;42.728;23.288;2023-09-18T12:08:10;6.68;;;5.40;;
13040;SDS011;6587;42.728;23.288;2023-09-18T12:10:37;7.65;;;5.80;;
13040;SDS011;6587;42.728;23.288;2023-09-18T12:13:05;6.85;;;5.20;;
13040;SDS011;6587;42.728;23.288;2023-09-18T12:15:32;7.38;;;5.65;;
13040;SDS011;6587;42.728;23.288;2023-09-18T12:18:04;6.38;;;5.30;;
13040;SDS011;6587;42.728;23.288;2023-09-18T12:20:31;8.05;;;5.65;;
13040;SDS011;6587;42.728;23.288;2023-09-18T12:22:59;7.18;;;6.05;;
13040;SDS011;6587;42.728;23.288;2023-09-18T12:25:29;7.68;;;5.45;;
13040;SDS011;6587;42.728;23.288;2023-09-18T12:27:55;10.40;;;5.97;;
13040;SDS011;6587;42.728;23.288;2023-09-18T12:30:24;7.38;;;5.63;;
13040;SDS011;6587;42.728;23.288;2023-09-18T12:32:51;6.28;;;5.47;;
13040;SDS011;6587;42.728;23.288;2023-09-18T12:35:18;8.02;;;5.40;;
13040;SDS011;6587;42.728;23.288;2023-09-18T12:37:44;5.97;;;4.93;;
13040;SDS011;6587;42.728;23.288;2023-09-18T12:40:21;7.85;;;5.10;;
13040;SDS011;6587;42.728;23.288;2023-09-18T12:42:49;6.55;;;5.00;;
13040;SDS011;6587;42.728;23.288;2023-09-18T12:45:16;5.57;;;4.97;;
13040;SDS011;6587;42.728;23.288;2023-09-18T12:47:43;5.95;;;5.03;;
13040;SDS011;6587;42.728;23.288;2023-09-18T12:50:12;7.13;;;5.65;;
13040;SDS011;6587;42.728;23.288;2023-09-18T12:52:39;6.88;;;5.15;;
13040;SDS011;6587;42.728;23.288;2023-09-18T12:55:05;8.20;;;5.53;;
13040;SDS011;6587;42.728;23.288;2023-09-18T12:57:32;7.78;;;5.07;;
13040;SDS011;6587;42.728;23.288;2023-09-18T13:00:07;5.60;;;4.72;;
13040;SDS011;6587;42.728;23.288;2023-09-18T13:02:35;8.88;;;5.40;;
13040;SDS011;6587;42.728;23.288;2023-09-18T13:05:02;6.80;;;5.70;;
13040;SDS011;6587;42.728;23.288;2023-09-18T13:07:29;8.05;;;4.97;;
13040;SDS011;6587;42.728;23.288;2023-09-18T13:09:58;7.80;;;5.20;;
13040;SDS011;6587;42.728;23.288;2023-09-18T13:12:25;6.50;;;5.22;;
13040;SDS011;6587;42.728;23.288;2023-09-18T13:14:58;8.68;;;5.43;;
13040;SDS011;6587;42.728;23.288;2023-09-18T13:17:26;8.90;;;5.38;;
13040;SDS011;6587;42.728;23.288;2023-09-18T13:19:54;7.95;;;5.00;;
13040;SDS011;6587;42.728;23.288;2023-09-18T13:22:24;7.28;;;5.05;;
13040;SDS011;6587;42.728;23.288;2023-09-18T13:24:55;6.97;;;5.20;;
13040;SDS011;6587;42.728;23.288;2023-09-18T13:27:21;6.45;;;5.10;;
13040;SDS011;6587;42.728;23.288;2023-09-18T13:29:48;5.32;;;4.82;;
13040;SDS011;6587;42.728;23.288;2023-09-18T13:32:15;6.88;;;5.15;;
13040;SDS011;6587;42.728;23.288;2023-09-18T13:34:43;5.70;;;5.10;;
13040;SDS011;6587;42.728;23.288;2023-09-18T13:37:10;7.18;;;5.78;;
13040;SDS011;6587;42.728;23.288;2023-09-18T13:39:37;6.47;;;5.43;;
13040;SDS011;6587;42.728;23.288;2023-09-18T13:42:03;6.85;;;5.40;;
13040;SDS011;6587;42.728;23.288;2023-09-18T13:44:30;8.43;;;5.80;;
13040;SDS011;6587;42.728;23.288;2023-09-18T13:46:57;7.68;;;5.85;;
13040;SDS011;6587;42.728;23.288;2023-09-18T13:49:24;6.80;;;5.43;;
13040;SDS011;6587;42.728;23.288;2023-09-18T13:51:52;5.95;;;4.93;;
13040;SDS011;6587;42.728;23.288;2023-09-18T13:54:19;7.90;;;5.57;;
13040;SDS011;6587;42.728;23.288;2023-09-18T13:56:46;7.55;;;5.40;;
13040;SDS011;6587;42.728;23.288;2023-09-18T13:59:13;5.95;;;5.15;;
13040;SDS011;6587;42.728;23.288;2023-09-18T14:01:39;7.90;;;4.95;;
13040;SDS011;6587;42.728;23.288;2023-09-18T14:04:06;9.30;;;5.53;;
13040;SDS011;6587;42.728;23.288;2023-09-18T14:06:32;8.18;;;5.97;;
13040;SDS011;6587;42.728;23.288;2023-09-18T14:09:00;7.25;;;5.38;;
13040;SDS011;6587;42.728;23.288;2023-09-18T14:11:30;9.30;;;4.97;;
13040;SDS011;6587;42.728;23.288;2023-09-18T14:13:57;7.75;;;5.45;;
13040;SDS011;6587;42.728;23.288;2023-09-18T14:16:24;7.38;;;5.15;;
13040;SDS011;6587;42.728;23.288;2023-09-18T14:18:50;9.27;;;5.30;;
13040;SDS011;6587;42.728;23.288;2023-09-18T14:21:19;7.25;;;4.95;;
13040;SDS011;6587;42.728;23.288;2023-09-18T14:23:45;5.28;;;4.72;;
13040;SDS011;6587;42.728;23.288;2023-09-18T14:26:13;7.55;;;5.07;;
13040;SDS011;6587;42.728;23.288;2023-09-18T14:28:40;7.15;;;5.22;;
13040;SDS011;6587;42.728;23.288;2023-09-18T14:31:10;7.50;;;5.00;;
13040;SDS011;6587;42.728;23.288;2023-09-18T14:33:36;6.55;;;5.28;;
13040;SDS011;6587;42.728;23.288;2023-09-18T14:36:03;7.07;;;5.32;;
13040;SDS011;6587;42.728;23.288;2023-09-18T14:38:30;8.90;;;5.55;;